sensor_id;sensor_type;location;lat;lon;timestamp;pressure;altitude;pressure_sealevel;temperature;humidity
28588;BME280;15787;49.662;10.162;2023-04-01T00:00:20;97589.03;;;10.15;89.13
28588;BME280;15787;49.662;10.162;2023-04-01T00:02:53;97582.53;;;10.19;88.63
28588;BME280;15787;49.662;10.162;2023-04-01T00:05:26;97585.94;;;10.13;87.86
28588;BME280;15787;49.662;10.162;2023-04-01T00:07:59;97588.72;;;10.13;87.87
28588;BME280;15787;49.662;10.162;2023-04-01T00:10:32;97593.75;;;9.97;87.96
28588;BME280;15787;49.662;10.162;2023-04-01T00:13:07;97587.28;;;10.00;88.50
28588;BME280;15787;49.662;10.162;2023-04-01T00:15:40;97591.16;;;10.02;88.58
28588;BME280;15787;49.662;10.162;2023-04-01T00:18:13;97591.44;;;10.04;87.90
28588;BME280;15787;49.662;10.162;2023-04-01T00:20:47;97594.41;;;10.01;88.63
28588;BME280;15787;49.662;10.162;2023-04-01T00:23:21;97596.88;;;10.08;88.20
28588;BME280;15787;49.662;10.162;2023-04-01T00:25:54;97581.25;;;10.01;88.13
28588;BME280;15787;49.662;10.162;2023-04-01T00:28:28;97588.66;;;10.04;87.71
28588;BME280;15787;49.662;10.162;2023-04-01T00:31:04;97590.53;;;9.98;88.27
28588;BME280;15787;49.662;10.162;2023-04-01T00:33:38;97591.78;;;10.06;87.92
28588;BME280;15787;49.662;10.162;2023-04-01T00:36:12;97596.88;;;10.08;87.85
28588;BME280;15787;49.662;10.162;2023-04-01T00:38:45;97587.16;;;10.12;87.93
28588;BME280;15787;49.662;10.162;2023-04-01T00:41:19;97589.31;;;10.08;87.39
28588;BME280;15787;49.662;10.162;2023-04-01T00:44:16;97584.81;;;10.11;87.84
28588;BME280;15787;49.662;10.162;2023-04-01T00:46:51;97585.56;;;10.02;88.29
28588;BME280;15787;49.662;10.162;2023-04-01T00:49:28;97591.78;;;10.06;88.36
28588;BME280;15787;49.662;10.162;2023-04-01T00:52:04;97584.03;;;10.10;87.89
28588;BME280;15787;49.662;10.162;2023-04-01T00:54:38;97599.19;;;10.09;87.99
28588;BME280;15787;49.662;10.162;2023-04-01T00:57:18;97589.63;;;10.10;87.97
28588;BME280;15787;49.662;10.162;2023-04-01T00:59:54;97591.16;;;10.02;88.40
28588;BME280;15787;49.662;10.162;2023-04-01T01:02:28;97595.19;;;10.01;88.58
28588;BME280;15787;49.662;10.162;2023-04-01T01:05:01;97594.88;;;10.08;88.19
28588;BME280;15787;49.662;10.162;2023-04-01T01:07:40;97597.03;;;10.04;88.63
28588;BME280;15787;49.662;10.162;2023-04-01T01:10:17;97590.84;;;10.00;87.77
28588;BME280;15787;49.662;10.162;2023-04-01T01:12:58;97597.50;;;10.03;88.08
28588;BME280;15787;49.662;10.162;2023-04-01T01:15:37;97591.31;;;9.99;88.17
28588;BME280;15787;49.662;10.162;2023-04-01T01:18:18;97585.25;;;9.91;88.61
28588;BME280;15787;49.662;10.162;2023-04-01T01:24:30;97593.13;;;9.84;88.89
28588;BME280;15787;49.662;10.162;2023-04-01T01:27:08;97585.06;;;9.77;88.51
28588;BME280;15787;49.662;10.162;2023-04-01T01:30:01;97583.97;;;9.74;88.79
28588;BME280;15787;49.662;10.162;2023-04-01T01:33:05;97580.13;;;9.81;88.69
28588;BME280;15787;49.662;10.162;2023-04-01T01:35:43;97573.75;;;9.80;88.45
28588;BME280;15787;49.662;10.162;2023-04-01T01:38:24;97583.81;;;9.78;88.14
28588;BME280;15787;49.662;10.162;2023-04-01T01:41:10;97579.19;;;9.84;87.55
28588;BME280;15787;49.662;10.162;2023-04-01T01:43:47;97567.88;;;9.87;87.07
28588;BME280;15787;49.662;10.162;2023-04-01T01:46:24;97571.63;;;9.93;87.36
28588;BME280;15787;49.662;10.162;2023-04-01T01:48:59;97562.97;;;10.00;86.50
28588;BME280;15787;49.662;10.162;2023-04-01T01:51:34;97573.78;;;9.89;86.69
28588;BME280;15787;49.662;10.162;2023-04-01T01:54:11;97563.56;;;9.95;86.64
28588;BME280;15787;49.662;10.162;2023-04-01T01:56:47;97581.81;;;9.87;86.41
28588;BME280;15787;49.662;10.162;2023-04-01T01:59:22;97571.75;;;9.90;86.39
28588;BME280;15787;49.662;10.162;2023-04-01T02:01:58;97569.75;;;9.81;86.59
28588;BME280;15787;49.662;10.162;2023-04-01T02:04:31;97562.31;;;9.78;86.97
28588;BME280;15787;49.662;10.162;2023-04-01T02:07:09;97566.94;;;9.72;87.63
28588;BME280;15787;49.662;10.162;2023-04-01T02:09:44;97562.44;;;9.75;87.63
28588;BME280;15787;49.662;10.162;2023-04-01T02:12:19;97566.19;;;9.81;87.36
28588;BME280;15787;49.662;10.162;2023-04-01T02:14:58;97561.22;;;9.76;88.18
28588;BME280;15787;49.662;10.162;2023-04-01T02:17:35;97564.31;;;9.78;87.74
28588;BME280;15787;49.662;10.162;2023-04-01T02:20:13;97564.78;;;9.76;88.04
28588;BME280;15787;49.662;10.162;2023-04-01T02:22:52;97562.00;;;9.76;88.22
28588;BME280;15787;49.662;10.162;2023-04-01T02:25:29;97560.91;;;9.83;88.65
28588;BME280;15787;49.662;10.162;2023-04-01T02:28:05;97558.44;;;9.76;88.30
28588;BME280;15787;49.662;10.162;2023-04-01T02:30:40;97564.63;;;9.71;88.91
28588;BME280;15787;49.662;10.162;2023-04-01T02:33:15;97568.16;;;9.71;88.64
28588;BME280;15787;49.662;10.162;2023-04-01T02:35:49;97573.41;;;9.69;89.02
28588;BME280;15787;49.662;10.162;2023-04-01T02:38:24;97560.44;;;9.75;88.72
28588;BME280;15787;49.662;10.162;2023-04-01T02:41:00;97566.31;;;9.77;88.97
28588;BME280;15787;49.662;10.162;2023-04-01T02:43:33;97576.84;;;9.73;89.04
28588;BME280;15787;49.662;10.162;2023-04-01T02:46:06;97572.19;;;9.79;89.07
28588;BME280;15787;49.662;10.162;2023-04-01T02:48:39;97569.91;;;9.87;88.28
28588;BME280;15787;49.662;10.162;2023-04-01T02:51:13;97563.22;;;9.84;87.82
28588;BME280;15787;49.662;10.162;2023-04-01T02:53:50;97571.59;;;9.75;87.94
28588;BME280;15787;49.662;10.162;2023-04-01T02:56:23;97574.06;;;9.82;88.15
28588;BME280;15787;49.662;10.162;2023-04-01T02:58:57;97575.00;;;9.79;88.47
28588;BME280;15787;49.662;10.162;2023-04-01T03:01:30;97582.44;;;9.82;88.49
28588;BME280;15787;49.662;10.162;2023-04-01T03:04:04;97574.69;;;9.77;89.38
28588;BME280;15787;49.662;10.162;2023-04-01T03:06:37;97575.00;;;9.79;89.40
28588;BME280;15787;49.662;10.162;2023-04-01T03:09:11;97577.94;;;9.76;89.44
28588;BME280;15787;49.662;10.162;2023-04-01T03:11:44;97579.78;;;9.70;89.31
28588;BME280;15787;49.662;10.162;2023-04-01T03:14:17;97578.38;;;9.74;88.87
28588;BME280;15787;49.662;10.162;2023-04-01T03:16:50;97573.59;;;9.75;88.65
28588;BME280;15787;49.662;10.162;2023-04-01T03:19:24;97572.19;;;9.79;88.86
28588;BME280;15787;49.662;10.162;2023-04-01T03:21:56;97572.06;;;9.83;88.18
28588;BME280;15787;49.662;10.162;2023-04-01T03:24:31;97565.72;;;9.82;87.96
28588;BME280;15787;49.662;10.162;2023-04-01T03:27:04;97558.88;;;9.74;87.93
28588;BME280;15787;49.662;10.162;2023-04-01T03:29:37;97572.69;;;9.87;87.35
28588;BME280;15787;49.662;10.162;2023-04-01T03:32:10;97574.56;;;9.90;87.50
28588;BME280;15787;49.662;10.162;2023-04-01T03:34:43;97575.78;;;9.80;87.44
28588;BME280;15787;49.662;10.162;2023-04-01T03:37:16;97577.78;;;9.79;87.60
28588;BME280;15787;49.662;10.162;2023-04-01T03:39:50;97581.53;;;9.85;87.72
28588;BME280;15787;49.662;10.162;2023-04-01T03:42:23;97574.72;;;9.86;87.84
28588;BME280;15787;49.662;10.162;2023-04-01T03:44:58;97577.59;;;9.74;88.12
28588;BME280;15787;49.662;10.162;2023-04-01T03:47:31;97588.44;;;9.72;87.75
28588;BME280;15787;49.662;10.162;2023-04-01T03:50:05;97581.66;;;9.73;87.85
28588;BME280;15787;49.662;10.162;2023-04-01T03:52:39;97580.25;;;9.68;88.53
28588;BME280;15787;49.662;10.162;2023-04-01T03:55:13;97587.34;;;9.69;88.53
28588;BME280;15787;49.662;10.162;2023-04-01T03:57:47;97583.19;;;9.74;88.49
28588;BME280;15787;49.662;10.162;2023-04-01T04:00:22;97581.81;;;9.78;87.17
28588;BME280;15787;49.662;10.162;2023-04-01T04:02:59;97588.31;;;9.75;87.63
28588;BME280;15787;49.662;10.162;2023-04-01T04:05:36;97581.47;;;9.67;87.94
28588;BME280;15787;49.662;10.162;2023-04-01T04:08:09;97592.94;;;9.69;87.89
28588;BME280;15787;49.662;10.162;2023-04-01T04:10:43;97601.44;;;9.66;88.83
28588;BME280;15787;49.662;10.162;2023-04-01T04:13:16;97581.59;;;9.64;88.24
28588;BME280;15787;49.662;10.162;2023-04-01T04:15:54;97582.56;;;9.70;88.30
28588;BME280;15787;49.662;10.162;2023-04-01T04:18:27;97592.00;;;9.63;89.26
28588;BME280;15787;49.662;10.162;2023-04-01T04:21:01;97590.72;;;9.55;90.04
28588;BME280;15787;49.662;10.162;2023-04-01T04:23:33;97589.88;;;9.36;91.12
28588;BME280;15787;49.662;10.162;2023-04-01T04:26:12;97599.50;;;9.44;91.38
28588;BME280;15787;49.662;10.162;2023-04-01T04:28:49;97596.69;;;9.35;91.33
28588;BME280;15787;49.662;10.162;2023-04-01T04:31:24;97577.22;;;9.44;91.10
28588;BME280;15787;49.662;10.162;2023-04-01T04:34:00;97592.06;;;9.41;91.08
28588;BME280;15787;49.662;10.162;2023-04-01T04:36:37;97604.16;;;9.47;91.35
28588;BME280;15787;49.662;10.162;2023-04-01T04:39:10;97591.63;;;9.43;91.25
28588;BME280;15787;49.662;10.162;2023-04-01T04:41:48;97595.31;;;9.40;91.32
28588;BME280;15787;49.662;10.162;2023-04-01T04:44:21;97596.22;;;9.37;90.92
28588;BME280;15787;49.662;10.162;2023-04-01T04:46:54;97592.72;;;9.45;90.89
28588;BME280;15787;49.662;10.162;2023-04-01T04:49:29;97593.81;;;9.48;89.97
28588;BME280;15787;49.662;10.162;2023-04-01T04:52:03;97589.47;;;9.47;89.72
28588;BME280;15787;49.662;10.162;2023-04-01T04:54:37;97590.03;;;9.33;90.46
28588;BME280;15787;49.662;10.162;2023-04-01T04:57:12;97593.25;;;9.31;90.74
28588;BME280;15787;49.662;10.162;2023-04-01T04:59:56;97586.31;;;9.36;90.90
28588;BME280;15787;49.662;10.162;2023-04-01T05:02:48;97582.78;;;9.35;90.14
28588;BME280;15787;49.662;10.162;2023-04-01T05:05:22;97583.09;;;9.46;90.12
28588;BME280;15787;49.662;10.162;2023-04-01T05:07:55;97584.97;;;9.40;89.60
28588;BME280;15787;49.662;10.162;2023-04-01T05:10:28;97588.97;;;9.39;89.35
28588;BME280;15787;49.662;10.162;2023-04-01T05:13:02;97579.13;;;9.57;89.27
28588;BME280;15787;49.662;10.162;2023-04-01T05:15:35;97593.22;;;9.53;88.08
28588;BME280;15787;49.662;10.162;2023-04-01T05:18:08;97588.22;;;9.48;88.23
28588;BME280;15787;49.662;10.162;2023-04-01T05:20:46;97598.91;;;9.49;88.27
28588;BME280;15787;49.662;10.162;2023-04-01T05:23:20;97589.03;;;9.58;88.29
28588;BME280;15787;49.662;10.162;2023-04-01T05:25:54;97587.34;;;9.69;87.52
28588;BME280;15787;49.662;10.162;2023-04-01T05:28:30;97586.25;;;9.58;87.36
28588;BME280;15787;49.662;10.162;2023-04-01T05:31:03;97587.22;;;9.73;87.50
28588;BME280;15787;49.662;10.162;2023-04-01T05:33:43;97587.53;;;9.75;86.50
28588;BME280;15787;49.662;10.162;2023-04-01T05:36:16;97589.09;;;9.85;86.27
28588;BME280;15787;49.662;10.162;2023-04-01T05:38:49;97586.97;;;9.89;85.70
28588;BME280;15787;49.662;10.162;2023-04-01T05:41:23;97594.66;;;9.76;85.40
28588;BME280;15787;49.662;10.162;2023-04-01T05:43:58;97582.91;;;9.81;85.42
28588;BME280;15787;49.662;10.162;2023-04-01T05:46:56;97594.97;;;9.78;85.72
28588;BME280;15787;49.662;10.162;2023-04-01T05:49:31;97585.22;;;9.82;85.79
28588;BME280;15787;49.662;10.162;2023-04-01T05:52:06;97586.47;;;9.81;86.07
28588;BME280;15787;49.662;10.162;2023-04-01T05:54:40;97583.09;;;9.86;85.84
28588;BME280;15787;49.662;10.162;2023-04-01T05:57:13;97586.97;;;9.98;86.69
28588;BME280;15787;49.662;10.162;2023-04-01T05:59:48;97594.97;;;9.87;86.32
28588;BME280;15787;49.662;10.162;2023-04-01T06:02:21;97588.00;;;9.82;86.79
28588;BME280;15787;49.662;10.162;2023-04-01T06:05:03;97584.63;;;9.87;86.40
28588;BME280;15787;49.662;10.162;2023-04-01T06:07:36;97581.66;;;9.82;86.47
28588;BME280;15787;49.662;10.162;2023-04-01T06:10:12;97584.78;;;9.93;86.79
28588;BME280;15787;49.662;10.162;2023-04-01T06:12:53;97591.72;;;9.79;87.17
28588;BME280;15787;49.662;10.162;2023-04-01T06:15:36;97589.88;;;9.85;87.28
28588;BME280;15787;49.662;10.162;2023-04-01T06:18:37;97574.53;;;9.81;87.43
28588;BME280;15787;49.662;10.162;2023-04-01T06:21:31;97568.81;;;9.75;88.46
28588;BME280;15787;49.662;10.162;2023-04-01T06:24:27;97575.41;;;9.69;89.20
28588;BME280;15787;49.662;10.162;2023-04-01T06:27:07;97565.66;;;9.64;89.63
28588;BME280;15787;49.662;10.162;2023-04-01T06:30:07;97570.94;;;9.62;90.94
28588;BME280;15787;49.662;10.162;2023-04-01T06:33:02;97575.59;;;9.74;90.90
28588;BME280;15787;49.662;10.162;2023-04-01T06:35:53;97578.88;;;9.82;91.22
28588;BME280;15787;49.662;10.162;2023-04-01T06:38:38;97566.47;;;9.74;90.86
28588;BME280;15787;49.662;10.162;2023-04-01T06:41:37;97572.81;;;9.65;90.50
28588;BME280;15787;49.662;10.162;2023-04-01T06:44:16;97570.78;;;9.66;91.11
28588;BME280;15787;49.662;10.162;2023-04-01T06:47:23;97570.03;;;9.74;90.44
28588;BME280;15787;49.662;10.162;2023-04-01T06:50:22;97575.13;;;9.67;89.93
28588;BME280;15787;49.662;10.162;2023-04-01T06:53:20;97582.75;;;9.84;90.00
28588;BME280;15787;49.662;10.162;2023-04-01T06:56:15;97577.38;;;10.08;89.66
28588;BME280;15787;49.662;10.162;2023-04-01T06:58:59;97577.84;;;10.06;89.54
28588;BME280;15787;49.662;10.162;2023-04-01T07:01:38;97582.53;;;10.19;88.94
28588;BME280;15787;49.662;10.162;2023-04-01T07:04:16;97578.16;;;10.08;88.80
28588;BME280;15787;49.662;10.162;2023-04-01T07:06:57;97574.25;;;9.97;88.80
28588;BME280;15787;49.662;10.162;2023-04-01T07:09:33;97583.59;;;10.12;88.75
28588;BME280;15787;49.662;10.162;2023-04-01T07:12:34;97582.59;;;9.97;89.19
28588;BME280;15787;49.662;10.162;2023-04-01T07:15:55;97580.78;;;9.94;89.61
28588;BME280;15787;49.662;10.162;2023-04-01T07:18:37;97576.59;;;10.07;90.13
28588;BME280;15787;49.662;10.162;2023-04-01T07:21:22;97579.25;;;10.20;89.82
28588;BME280;15787;49.662;10.162;2023-04-01T07:24:03;97585.03;;;10.35;89.95
28588;BME280;15787;49.662;10.162;2023-04-01T07:26:42;97580.69;;;10.52;89.64
28588;BME280;15787;49.662;10.162;2023-04-01T07:29:20;97572.63;;;10.45;89.55
28588;BME280;15787;49.662;10.162;2023-04-01T07:32:24;97579.28;;;10.56;90.35
28588;BME280;15787;49.662;10.162;2023-04-01T07:35:11;97578.50;;;10.56;90.01
28588;BME280;15787;49.662;10.162;2023-04-01T07:38:02;97584.84;;;10.38;90.91
28588;BME280;15787;49.662;10.162;2023-04-01T07:40:45;97585.03;;;10.35;91.32
28588;BME280;15787;49.662;10.162;2023-04-01T07:46:45;97593.41;;;10.35;91.93
28588;BME280;15787;49.662;10.162;2023-04-01T07:49:28;97591.97;;;10.21;91.90
28588;BME280;15787;49.662;10.162;2023-04-01T07:52:06;97586.88;;;10.47;93.37
28588;BME280;15787;49.662;10.162;2023-04-01T07:54:52;97601.44;;;10.33;92.54
28588;BME280;15787;49.662;10.162;2023-04-01T07:57:33;97598.97;;;10.17;93.00
28588;BME280;15787;49.662;10.162;2023-04-01T08:00:15;97590.69;;;10.04;92.98
28588;BME280;15787;49.662;10.162;2023-04-01T08:03:17;97612.53;;;10.05;94.95
28588;BME280;15787;49.662;10.162;2023-04-01T08:05:57;97602.88;;;9.79;95.48
28588;BME280;15787;49.662;10.162;2023-04-01T08:08:43;97600.59;;;9.96;97.08
28588;BME280;15787;49.662;10.162;2023-04-01T08:11:53;97607.75;;;10.06;97.84
28588;BME280;15787;49.662;10.162;2023-04-01T08:15:08;97601.53;;;10.02;99.89
28588;BME280;15787;49.662;10.162;2023-04-01T08:18:12;97608.47;;;9.88;99.98
28588;BME280;15787;49.662;10.162;2023-04-01T08:20:50;97607.03;;;9.75;100.00
28588;BME280;15787;49.662;10.162;2023-04-01T08:23:27;97612.34;;;9.91;100.00
28588;BME280;15787;49.662;10.162;2023-04-01T08:26:06;97613.28;;;9.97;100.00
28588;BME280;15787;49.662;10.162;2023-04-01T08:28:50;97613.44;;;10.02;100.00
28588;BME280;15787;49.662;10.162;2023-04-01T08:31:33;97616.13;;;10.15;100.00
28588;BME280;15787;49.662;10.162;2023-04-01T08:34:13;97611.75;;;10.05;100.00
28588;BME280;15787;49.662;10.162;2023-04-01T08:36:51;97612.34;;;9.91;100.00
28588;BME280;15787;49.662;10.162;2023-04-01T08:39:30;97610.19;;;9.86;100.00
28588;BME280;15787;49.662;10.162;2023-04-01T08:42:41;97601.66;;;9.89;100.00
28588;BME280;15787;49.662;10.162;2023-04-01T08:45:35;97610.00;;;9.80;100.00
28588;BME280;15787;49.662;10.162;2023-04-01T08:48:44;97609.09;;;9.92;100.00
28588;BME280;15787;49.662;10.162;2023-04-01T08:52:01;97608.78;;;9.81;100.00
28588;BME280;15787;49.662;10.162;2023-04-01T08:55:02;97604.66;;;9.55;100.00
28588;BME280;15787;49.662;10.162;2023-04-01T08:58:11;97611.53;;;9.72;100.00
28588;BME280;15787;49.662;10.162;2023-04-01T09:01:24;97615.72;;;9.77;100.00
28588;BME280;15787;49.662;10.162;2023-04-01T09:04:31;97599.94;;;9.83;100.00
28588;BME280;15787;49.662;10.162;2023-04-01T09:07:24;97612.41;;;9.60;100.00
28588;BME280;15787;49.662;10.162;2023-04-01T09:10:21;97611.47;;;9.54;100.00
28588;BME280;15787;49.662;10.162;2023-04-01T09:13:07;97613.94;;;9.52;100.00
28588;BME280;15787;49.662;10.162;2023-04-01T09:15:57;97617.22;;;9.60;100.00
28588;BME280;15787;49.662;10.162;2023-04-01T09:19:03;97614.59;;;9.65;100.00
28588;BME280;15787;49.662;10.162;2023-04-01T09:21:55;97615.72;;;9.77;100.00
28588;BME280;15787;49.662;10.162;2023-04-01T09:24:42;97613.75;;;9.86;100.00
28588;BME280;15787;49.662;10.162;2023-04-01T09:27:26;97613.75;;;9.86;100.00
28588;BME280;15787;49.662;10.162;2023-04-01T09:30:28;97610.63;;;9.84;100.00
28588;BME280;15787;49.662;10.162;2023-04-01T09:36:23;97611.91;;;10.01;100.00
28588;BME280;15787;49.662;10.162;2023-04-01T09:39:08;97620.91;;;10.05;100.00
28588;BME280;15787;49.662;10.162;2023-04-01T09:41:52;97612.53;;;10.05;100.00
28588;BME280;15787;49.662;10.162;2023-04-01T09:44:43;97614.38;;;9.99;100.00
28588;BME280;15787;49.662;10.162;2023-04-01T09:47:31;97619.59;;;9.79;100.00
28588;BME280;15787;49.662;10.162;2023-04-01T09:50:21;97627.34;;;9.75;100.00
28588;BME280;15787;49.662;10.162;2023-04-01T09:53:11;97615.53;;;9.71;100.00
28588;BME280;15787;49.662;10.162;2023-04-01T09:56:10;97615.09;;;9.82;100.00
28588;BME280;15787;49.662;10.162;2023-04-01T09:59:13;97620.19;;;9.74;100.00
28588;BME280;15787;49.662;10.162;2023-04-01T10:02:32;97616.41;;;10.08;100.00
28588;BME280;15787;49.662;10.162;2023-04-01T10:05:39;97631.94;;;10.27;100.00
28588;BME280;15787;49.662;10.162;2023-04-01T10:18:31;97623.47;;;10.67;100.00
28588;BME280;15787;49.662;10.162;2023-04-01T10:21:54;97627.50;;;10.57;100.00
28588;BME280;15787;49.662;10.162;2023-04-01T10:25:10;97619.09;;;10.66;100.00
28588;BME280;15787;49.662;10.162;2023-04-01T10:28:07;97619.72;;;10.34;100.00
28588;BME280;15787;49.662;10.162;2023-04-01T10:31:35;97619.88;;;10.30;100.00
28588;BME280;15787;49.662;10.162;2023-04-01T10:34:50;97621.75;;;10.33;100.00
28588;BME280;15787;49.662;10.162;2023-04-01T10:37:45;97624.66;;;10.30;100.00
28588;BME280;15787;49.662;10.162;2023-04-01T10:40:47;97627.16;;;10.28;100.00
28588;BME280;15787;49.662;10.162;2023-04-01T10:44:28;97613.69;;;10.62;100.00
28588;BME280;15787;49.662;10.162;2023-04-01T10:50:39;97613.22;;;10.46;100.00
28588;BME280;15787;49.662;10.162;2023-04-01T10:53:38;97614.16;;;10.61;100.00
28588;BME280;15787;49.662;10.162;2023-04-01T10:56:44;97621.59;;;10.64;100.00
28588;BME280;15787;49.662;10.162;2023-04-01T11:00:08;97628.25;;;10.75;100.00
28588;BME280;15787;49.662;10.162;2023-04-01T11:07:10;97630.13;;;10.69;100.00
28588;BME280;15787;49.662;10.162;2023-04-01T11:10:25;97618.47;;;10.98;100.00
28588;BME280;15787;49.662;10.162;2023-04-01T11:13:32;97616.91;;;10.88;100.00
28588;BME280;15787;49.662;10.162;2023-04-01T11:16:35;97620.19;;;10.77;100.00
28588;BME280;15787;49.662;10.162;2023-04-01T11:23:10;97608.09;;;10.71;100.00
28588;BME280;15787;49.662;10.162;2023-04-01T11:26:02;97613.38;;;10.88;100.00
28588;BME280;15787;49.662;10.162;2023-04-01T11:29:27;97607.75;;;10.97;100.00
28588;BME280;15787;49.662;10.162;2023-04-01T11:32:42;97612.72;;;10.93;100.00
28588;BME280;15787;49.662;10.162;2023-04-01T11:35:30;97610.13;;;10.80;100.00
28588;BME280;15787;49.662;10.162;2023-04-01T11:38:19;97613.81;;;10.86;100.00
28588;BME280;15787;49.662;10.162;2023-04-01T11:41:24;97616.00;;;10.82;100.00
28588;BME280;15787;49.662;10.162;2023-04-01T11:44:19;97620.63;;;10.94;100.00
28588;BME280;15787;49.662;10.162;2023-04-01T11:47:18;97614.44;;;10.81;100.00
28588;BME280;15787;49.662;10.162;2023-04-01T11:50:02;97611.66;;;10.72;100.00
28588;BME280;15787;49.662;10.162;2023-04-01T11:52:56;97631.50;;;10.74;100.00
28588;BME280;15787;49.662;10.162;2023-04-01T11:55:38;97623.75;;;10.69;100.00
28588;BME280;15787;49.662;10.162;2023-04-01T11:58:27;97624.38;;;10.82;100.00
28588;BME280;15787;49.662;10.162;2023-04-01T12:01:16;97633.19;;;10.80;100.00
28588;BME280;15787;49.662;10.162;2023-04-01T12:04:25;97634.00;;;10.63;100.00
28588;BME280;15787;49.662;10.162;2023-04-01T12:07:08;97630.91;;;10.79;100.00
28588;BME280;15787;49.662;10.162;2023-04-01T12:09:52;97633.81;;;10.94;100.00
28588;BME280;15787;49.662;10.162;2023-04-01T12:12:32;97636.28;;;11.10;100.00
28588;BME280;15787;49.662;10.162;2023-04-01T12:15:18;97654.59;;;11.02;100.00
28588;BME280;15787;49.662;10.162;2023-04-01T12:17:58;97644.81;;;10.88;100.00
28588;BME280;15787;49.662;10.162;2023-04-01T12:20:43;97646.09;;;10.87;100.00
28588;BME280;15787;49.662;10.162;2023-04-01T12:23:44;97645.44;;;11.10;100.00
28588;BME280;15787;49.662;10.162;2023-04-01T12:26:43;97645.13;;;11.17;100.00
28588;BME280;15787;49.662;10.162;2023-04-01T12:29:38;97635.94;;;11.26;100.00
28588;BME280;15787;49.662;10.162;2023-04-01T12:32:24;97644.59;;;11.37;100.00
28588;BME280;15787;49.662;10.162;2023-04-01T12:35:13;97646.59;;;11.46;100.00
28588;BME280;15787;49.662;10.162;2023-04-01T12:37:57;97640.53;;;11.47;100.00
28588;BME280;15787;49.662;10.162;2023-04-01T12:40:47;97656.63;;;11.61;100.00
28588;BME280;15787;49.662;10.162;2023-04-01T12:46:26;97638.06;;;11.40;100.00
28588;BME280;15787;49.662;10.162;2023-04-01T12:49:22;97642.56;;;11.37;100.00
28588;BME280;15787;49.662;10.162;2023-04-01T12:52:10;97651.53;;;11.51;100.00
28588;BME280;15787;49.662;10.162;2023-04-01T12:55:03;97649.72;;;11.29;100.00
28588;BME280;15787;49.662;10.162;2023-04-01T12:57:57;97648.75;;;10.91;100.00
28588;BME280;15787;49.662;10.162;2023-04-01T13:01:01;97661.72;;;11.12;100.00
28588;BME280;15787;49.662;10.162;2023-04-01T13:07:03;97656.44;;;11.23;100.00
28588;BME280;15787;49.662;10.162;2023-04-01T13:09:45;97666.41;;;10.78;100.00
28588;BME280;15787;49.662;10.162;2023-04-01T13:12:41;97661.91;;;10.72;100.00
28588;BME280;15787;49.662;10.162;2023-04-01T13:15:30;97665.19;;;10.79;100.00
28588;BME280;15787;49.662;10.162;2023-04-01T13:18:17;97665.34;;;10.67;100.00
28588;BME280;15787;49.662;10.162;2023-04-01T13:21:00;97664.84;;;10.87;100.00
28588;BME280;15787;49.662;10.162;2023-04-01T13:23:51;97662.84;;;10.69;100.00
28588;BME280;15787;49.662;10.162;2023-04-01T13:26:31;97669.66;;;10.86;100.00
28588;BME280;15787;49.662;10.162;2023-04-01T13:29:12;97667.47;;;10.63;100.00
28588;BME280;15787;49.662;10.162;2023-04-01T13:31:55;97672.44;;;10.68;100.00
28588;BME280;15787;49.662;10.162;2023-04-01T13:34:45;97676.03;;;10.59;100.00
28588;BME280;15787;49.662;10.162;2023-04-01T13:37:29;97665.16;;;10.70;100.00
28588;BME280;15787;49.662;10.162;2023-04-01T13:40:23;97666.56;;;10.66;100.00
28588;BME280;15787;49.662;10.162;2023-04-01T13:43:02;97669.97;;;10.52;100.00
28588;BME280;15787;49.662;10.162;2023-04-01T13:45:46;97668.28;;;10.54;100.00
28588;BME280;15787;49.662;10.162;2023-04-01T13:48:36;97678.66;;;10.63;100.00
28588;BME280;15787;49.662;10.162;2023-04-01T13:51:25;97672.13;;;10.48;100.00
28588;BME280;15787;49.662;10.162;2023-04-01T13:54:36;97677.28;;;10.67;100.00
28588;BME280;15787;49.662;10.162;2023-04-01T13:57:27;97673.69;;;10.76;100.00
28588;BME280;15787;49.662;10.162;2023-04-01T14:00:31;97671.53;;;10.80;100.00
28588;BME280;15787;49.662;10.162;2023-04-01T14:03:21;97672.94;;;10.85;100.00
28588;BME280;15787;49.662;10.162;2023-04-01T14:06:06;97673.53;;;10.89;100.00
28588;BME280;15787;49.662;10.162;2023-04-01T14:08:55;97674.16;;;11.02;100.00
28588;BME280;15787;49.662;10.162;2023-04-01T14:11:37;97677.88;;;11.08;100.00
28588;BME280;15787;49.662;10.162;2023-04-01T14:14:21;97685.47;;;11.07;100.00
28588;BME280;15787;49.662;10.162;2023-04-01T14:17:29;97674.31;;;11.07;100.00
28588;BME280;15787;49.662;10.162;2023-04-01T14:20:28;97680.50;;;11.20;100.00
28588;BME280;15787;49.662;10.162;2023-04-01T14:23:18;97683.47;;;10.90;100.00
28588;BME280;15787;49.662;10.162;2023-04-01T14:26:07;97686.09;;;11.02;100.00
28588;BME280;15787;49.662;10.162;2023-04-01T14:28:48;97686.56;;;11.10;100.00
28588;BME280;15787;49.662;10.162;2023-04-01T14:31:35;97691.53;;;11.15;100.00
28588;BME280;15787;49.662;10.162;2023-04-01T14:34:25;97694.28;;;11.24;100.00
28588;BME280;15787;49.662;10.162;2023-04-01T14:37:15;97694.91;;;11.19;100.00
28588;BME280;15787;49.662;10.162;2023-04-01T14:40:26;97707.19;;;10.94;100.00
28588;BME280;15787;49.662;10.162;2023-04-01T14:43:23;97709.38;;;10.90;100.00
28588;BME280;15787;49.662;10.162;2023-04-01T14:46:27;97708.13;;;10.73;100.00
28588;BME280;15787;49.662;10.162;2023-04-01T14:49:15;97705.03;;;10.71;100.00
28588;BME280;15787;49.662;10.162;2023-04-01T14:51:52;97707.34;;;10.63;100.00
28588;BME280;15787;49.662;10.162;2023-04-01T14:54:32;97706.09;;;10.73;100.00
28588;BME280;15787;49.662;10.162;2023-04-01T14:57:13;97709.22;;;10.57;100.00
28588;BME280;15787;49.662;10.162;2023-04-01T14:59:49;97709.53;;;10.59;100.00